Time;durP1;ratioP1;P1;durP2;ratioP2;P2;SDS_P1;SDS_P2;PMS_P1;PMS_P2;Temp;Humidity;BMP_temperature;BMP_pressure;BME280_temperature;BME280_humidity;BME280_pressure;Samples;Min_cycle;Max_cycle;Signal;HPM_P1;HPM_P2
2022/06/09 00:00:06;;;;;;;4.75;2.74;;;;;;;;;;356548;149;864805;-57
2022/06/09 00:01:09;;;;;;;6.62;2.45;;;;;;;;;;358744;146;857254;-58
2022/06/09 00:02:11;;;;;;;5.82;3.33;;;;;;;;;;360058;149;858556;-58
2022/06/09 00:03:15;;;;;;;4.47;2.66;;;;;;;;;;357580;149;859025;-58
2022/06/09 00:04:18;;;;;;;5.40;2.67;;;;;;;;;;356664;149;864784;-58
2022/06/09 00:05:20;;;;;;;3.66;2.74;;;;;;;;;;358559;149;858877;-58
2022/06/09 00:06:22;;;;;;;3.87;2.61;;;;;;;;;;360449;148;857378;-58
2022/06/09 00:07:24;;;;;;;8.89;2.94;;;;;;;;;;356943;149;857272;-58
2022/06/09 00:08:25;;;;;;;3.99;2.65;;;;;;;;;;362193;148;864928;-58
2022/06/09 00:09:29;;;;;;;6.52;2.86;;;;;;;;;;354825;150;858685;-57
2022/06/09 00:10:31;;;;;;;4.85;2.76;;;;;;;;;;353811;151;857335;-58
2022/06/09 00:11:37;;;;;;;6.49;2.75;;;;;;;;;;356481;148;857174;-58
2022/06/09 00:12:38;;;;;;;3.73;2.89;;;;;;;;;;356331;150;864916;-58
2022/06/09 00:13:40;;;;;;;4.86;2.96;;;;;;;;;;355471;149;857191;-58
2022/06/09 00:14:42;;;;;;;5.12;2.51;;;;;;;;;;356453;148;859564;-58
2022/06/09 00:15:43;;;;;;;4.64;2.76;;;;;;;;;;356416;148;864834;-58
2022/06/09 00:16:46;;;;;;;5.36;2.81;;;;;;;;;;355716;148;865778;-57
2022/06/09 00:17:47;;;;;;;5.47;2.89;;;;;;;;;;360351;149;865403;-57
2022/06/09 00:18:49;;;;;;;4.49;2.84;;;;;;;;;;359067;149;858276;-58
2022/06/09 00:19:51;;;;;;;3.53;2.78;;;;;;;;;;359266;149;864857;-58
2022/06/09 00:20:54;;;;;;;4.66;2.85;;;;;;;;;;357384;149;857371;-57
2022/06/09 00:30:20;;;;;;;6.36;2.95;;;;;;;18.04;55.60;99419.86;394049;133;857279;-58
2022/06/09 00:31:22;;;;;;;5.59;2.81;;;;;;;17.98;55.64;99430.59;384976;138;858731;-58
2022/06/09 00:32:24;;;;;;;3.75;2.84;;;;;;;18.00;55.61;99434.02;383438;139;857199;-58
2022/06/09 00:33:26;;;;;;;4.14;2.63;;;;;;;17.98;55.52;99427.98;381166;139;857348;-58
2022/06/09 00:34:28;;;;;;;4.01;2.71;;;;;;;17.98;55.69;99422.73;380647;139;865721;-58
2022/06/09 00:35:30;;;;;;;6.49;2.96;;;;;;;18.01;55.53;99400.81;381143;139;859762;-58
2022/06/09 00:36:31;;;;;;;4.16;2.60;;;;;;;18.01;55.53;99400.81;381575;139;865698;-58
2022/06/09 00:37:33;;;;;;;3.58;2.95;;;;;;;17.97;55.46;99428.90;383155;139;864624;-58
2022/06/09 00:38:35;;;;;;;3.16;2.57;;;;;;;17.95;55.61;99430.74;383782;139;857331;-58
2022/06/09 00:39:36;;;;;;;4.17;2.36;;;;;;;;;;381990;139;864726;-58
2022/06/09 00:40:38;;;;;;;5.82;2.93;;;;;;;;;;379079;139;864705;-56
2022/06/09 00:41:41;;;;;;;4.05;2.75;;;;;;;;;;381351;139;865623;-57
2022/06/09 00:42:42;;;;;;;4.69;2.58;;;;;;;;;;380872;139;858742;-58
2022/06/09 00:43:44;;;;;;;5.57;3.06;;;;;;;;;;383241;139;858784;-57
2022/06/09 00:44:47;;;;;;;6.72;2.85;;;;;;;;;;381153;139;857727;-57
2022/06/09 00:45:56;;;;;;;3.36;2.49;;;;;;;;;;380997;139;864750;-59
2022/06/09 00:47:02;;;;;;;4.11;2.81;;;;;;;;;;378082;139;858690;-57
2022/06/09 00:48:19;;;;;;;3.89;2.96;;;;;;;;;;382691;138;857277;-58
2022/06/09 00:49:26;;;;;;;5.66;3.08;;;;;;;;;;386924;138;857293;-58
2022/06/09 00:50:27;;;;;;;5.24;2.51;;;;;;;;;;384283;138;857844;-57
2022/06/09 00:51:37;;;;;;;4.64;2.65;;;;;;;;;;385742;138;857212;-59
2022/06/09 00:52:40;;;;;;;5.34;2.99;;;;;;;;;;385657;138;857283;-57
2022/06/09 00:53:42;;;;;;;4.22;2.71;;;;;;;;;;386232;138;857222;-58
2022/06/09 00:54:45;;;;;;;6.59;2.91;;;;;;;;;;383095;138;864764;-58
2022/06/09 00:55:46;;;;;;;6.07;3.10;;;;;;;;;;384877;138;857244;-58
2022/06/09 00:56:49;;;;;;;4.27;2.55;;;;;;;;;;378652;141;864929;-57
2022/06/09 00:57:52;;;;;;;5.15;3.17;;;;;;;;;;378053;139;865694;-57
2022/06/09 00:58:55;;;;;;;6.09;2.90;;;;;;;;;;387438;138;864981;-56
2022/06/09 00:59:58;;;;;;;4.19;2.66;;;;;;;;;;385474;138;860079;-56
2022/06/09 01:01:04;;;;;;;5.74;2.89;;;;;;;;;;385315;138;857295;-57
2022/06/09 01:02:07;;;;;;;5.02;2.58;;;;;;;;;;385027;138;865279;-58
2022/06/09 01:03:09;;;;;;;4.33;3.23;;;;;;;;;;384342;138;857319;-58
2022/06/09 01:04:11;;;;;;;5.07;3.00;;;;;;;;;;386359;138;859009;-58
2022/06/09 01:05:13;;;;;;;5.91;3.11;;;;;;;;;;386896;138;857140;-58
2022/06/09 01:06:17;;;;;;;5.38;3.14;;;;;;;;;;385884;138;857194;-58
2022/06/09 01:07:23;;;;;;;7.09;2.81;;;;;;;;;;384898;138;857286;-58
2022/06/09 01:08:25;;;;;;;4.52;2.99;;;;;;;;;;386278;138;859605;-57
2022/06/09 01:09:26;;;;;;;4.21;3.14;;;;;;;;;;385013;138;859046;-57
2022/06/09 01:10:29;;;;;;;3.66;2.83;;;;;;;;;;383490;138;857253;-58
2022/06/09 01:11:31;;;;;;;5.09;3.08;;;;;;;;;;387152;138;864847;-57
2022/06/09 01:12:37;;;;;;;5.16;2.95;;;;;;;;;;383581;137;859871;-57
2022/06/09 01:13:38;;;;;;;3.94;2.69;;;;;;;;;;385103;138;858128;-58
2022/06/09 01:14:41;;;;;;;4.81;2.84;;;;;;;;;;386075;138;857195;-58
2022/06/09 01:15:50;;;;;;;4.85;3.02;;;;;;;;;;385923;138;857164;-58
2022/06/09 01:17:00;;;;;;;3.95;3.17;;;;;;;;;;386050;138;857249;-58
2022/06/09 01:18:10;;;;;;;7.08;3.54;;;;;;;;;;385367;138;858194;-57
2022/06/09 01:19:16;;;;;;;5.64;3.53;;;;;;;;;;365816;143;857512;-57
2022/06/09 01:20:32;;;;;;;5.17;3.52;;;;;;;;;;374197;141;857273;-59
2022/06/09 01:21:52;;;;;;;6.91;3.25;;;;;;;;;;377730;140;857135;-59
2022/06/09 01:22:56;;;;;;;6.88;3.34;;;;;;;;;;372232;143;857338;-59
2022/06/09 01:24:00;;;;;;;4.14;3.02;;;;;;;;;;371664;142;856319;-59
2022/06/09 01:25:20;;;;;;;7.12;3.76;;;;;;;;;;374109;142;857340;-59
2022/06/09 01:26:24;;;;;;;4.71;3.08;;;;;;;;;;370770;142;858974;-59
2022/06/09 01:27:42;;;;;;;5.00;3.61;;;;;;;;;;377408;140;858229;-59
2022/06/09 01:28:45;;;;;;;6.17;3.65;;;;;;;;;;378425;140;859287;-57
2022/06/09 01:30:03;;;;;;;6.07;3.85;;;;;;;;;;377369;140;857533;-58
2022/06/09 01:31:24;;;;;;;8.38;4.09;;;;;;;;;;373972;141;865908;-58
2022/06/09 01:32:30;;;;;;;8.23;4.23;;;;;;;;;;372927;142;857245;-59
2022/06/09 01:33:46;;;;;;;7.64;4.13;;;;;;;;;;374170;141;857240;-59
2022/06/09 01:34:52;;;;;;;6.18;4.04;;;;;;;;;;375265;142;857219;-58
2022/06/09 01:35:56;;;;;;;6.08;3.72;;;;;;;;;;373736;141;857387;-58
2022/06/09 01:36:59;;;;;;;6.08;3.90;;;;;;;;;;374977;142;858644;-58
2022/06/09 01:38:01;;;;;;;6.47;3.49;;;;;;;;;;372681;142;867414;-59
2022/06/09 01:39:03;;;;;;;6.05;3.59;;;;;;;;;;375388;141;857103;-59
2022/06/09 01:40:06;;;;;;;5.81;3.83;;;;;;;;;;375296;141;857136;-58
2022/06/09 01:41:07;;;;;;;5.26;3.65;;;;;;;;;;373306;141;860856;-57
2022/06/09 01:42:20;;;;;;;5.66;3.51;;;;;;;;;;367997;143;857743;-58
2022/06/09 01:43:22;;;;;;;7.47;4.13;;;;;;;;;;357356;143;864822;-58
2022/06/09 01:44:23;;;;;;;8.91;3.90;;;;;;;;;;371732;141;856665;-59
2022/06/09 01:45:36;;;;;;;6.46;3.36;;;;;;;;;;372855;141;858658;-60
2022/06/09 01:46:38;;;;;;;5.58;3.16;;;;;;;;;;374707;143;858004;-58
2022/06/09 01:48:00;;;;;;;6.20;3.51;;;;;;;;;;375140;141;857730;-59
2022/06/09 01:49:03;;;;;;;4.46;3.32;;;;;;;;;;371795;141;858764;-58
2022/06/09 01:50:06;;;;;;;10.90;3.62;;;;;;;;;;370989;143;859733;-58
2022/06/09 02:03:14;;;;;;;12.12;4.14;;;;;;;17.03;59.42;99433.94;371930;141;880917;-58
2022/06/09 02:04:23;;;;;;;4.87;3.30;;;;;;;16.97;59.30;99432.45;362148;147;857145;-59
2022/06/09 02:05:27;;;;;;;8.75;3.83;;;;;;;16.98;59.61;99436.77;362623;147;858952;-59
2022/06/09 02:06:29;;;;;;;7.38;3.64;;;;;;;16.99;59.48;99430.63;362039;144;857247;-60
2022/06/09 02:07:31;;;;;;;6.22;3.94;;;;;;;16.99;59.33;99430.63;363807;147;857242;-60
2022/06/09 02:08:35;;;;;;;8.68;3.61;;;;;;;16.99;59.33;99430.63;362310;147;861058;-59
2022/06/09 02:09:41;;;;;;;7.30;3.71;;;;;;;17.03;59.12;99431.33;359963;147;857125;-59
2022/06/09 02:10:43;;;;;;;8.02;4.19;;;;;;;17.08;58.96;99431.98;345570;151;859047;-58
2022/06/09 02:11:50;;;;;;;7.80;3.88;;;;;;;17.10;58.96;99429.31;340406;154;857246;-58
2022/06/09 02:12:52;;;;;;;5.92;3.73;;;;;;;17.04;58.76;99428.66;345488;151;857321;-58
2022/06/09 02:13:56;;;;;;;5.31;3.37;;;;;;;17.03;59.03;99434.80;347705;151;859383;-60
2022/06/09 02:14:58;;;;;;;8.79;4.09;;;;;;;17.08;59.14;99430.23;348868;151;857960;-58
2022/06/09 02:16:03;;;;;;;6.21;3.65;;;;;;;17.16;59.13;99429.87;351572;151;858277;-58
2022/06/09 02:17:06;;;;;;;10.81;4.30;;;;;;;17.23;58.83;99433.09;348568;151;865343;-57
2022/06/09 02:18:11;;;;;;;6.91;3.81;;;;;;;17.27;58.52;99433.78;347659;151;857014;-58
2022/06/09 02:19:12;;;;;;;6.52;3.59;;;;;;;17.26;58.25;99437.31;347140;151;856947;-58
2022/06/09 02:20:15;;;;;;;6.61;3.94;;;;;;;17.22;58.16;99441.86;360446;147;857153;-57
2022/06/09 02:21:30;;;;;;;6.19;3.25;;;;;;;17.20;57.92;99441.91;352820;150;859012;-57
2022/06/09 02:22:32;;;;;;;5.09;3.48;;;;;;;17.12;57.72;99443.17;358651;150;857273;-59
2022/06/09 02:23:36;;;;;;;6.44;3.40;;;;;;;17.09;58.05;99449.37;356241;148;857156;-58
2022/06/09 02:24:38;;;;;;;6.13;3.86;;;;;;;17.07;58.18;99443.35;359710;147;868246;-59
2022/06/09 02:25:40;;;;;;;7.03;3.81;;;;;;;17.01;58.19;99451.46;359113;148;864724;-57
2022/06/09 02:26:42;;;;;;;5.63;3.46;;;;;;;16.90;58.31;99447.51;355099;148;857175;-59
2022/06/09 02:27:43;;;;;;;7.39;3.85;;;;;;;16.86;58.97;99443.32;356281;147;857180;-58
2022/06/09 02:28:45;;;;;;;7.86;3.84;;;;;;;16.86;59.26;99439.84;360258;147;866536;-58
2022/06/09 02:29:47;;;;;;;5.20;3.82;;;;;;;16.81;59.61;99403.45;356391;148;867456;-58
2022/06/09 02:30:49;;;;;;;6.25;3.95;;;;;;;16.81;59.61;99403.45;358846;147;865605;-59
2022/06/09 02:31:50;;;;;;;10.55;3.91;;;;;;;16.94;58.91;99458.67;358147;148;860820;-58
2022/06/09 02:32:52;;;;;;;6.80;4.01;;;;;;;16.94;58.91;99456.22;359387;147;863941;-58
2022/06/09 02:33:54;;;;;;;6.64;4.29;;;;;;;;;;358925;147;866161;-57
2022/06/09 02:34:56;;;;;;;11.61;4.38;;;;;;;;;;358614;147;863849;-57
2022/06/09 02:35:57;;;;;;;7.34;4.10;;;;;;;;;;358016;147;857381;-57
2022/06/09 02:36:59;;;;;;;8.71;4.19;;;;;;;;;;359048;147;857189;-57
2022/06/09 02:38:01;;;;;;;7.93;3.99;;;;;;;;;;358771;147;864707;-57
2022/06/09 02:39:03;;;;;;;7.40;4.29;;;;;;;;;;357346;147;857317;-58
2022/06/09 02:40:05;;;;;;;4.23;3.61;;;;;;;;;;357314;148;857804;-56
2022/06/09 02:41:07;;;;;;;8.24;4.00;;;;;;;;;;358881;147;863591;-58
2022/06/09 02:42:08;;;;;;;14.94;3.93;;;;;;;;;;356988;147;859449;-58
2022/06/09 02:43:10;;;;;;;9.24;3.79;;;;;;;;;;359258;147;857587;-58
2022/06/09 02:44:12;;;;;;;10.66;4.14;;;;;;;;;;359329;147;867067;-58
2022/06/09 02:45:14;;;;;;;6.00;4.03;;;;;;;;;;359202;147;864954;-57
2022/06/09 02:46:16;;;;;;;8.73;4.39;;;;;;;;;;359437;147;859278;-58
2022/06/09 02:47:18;;;;;;;6.59;4.13;;;;;;;;;;357193;148;859191;-59
2022/06/09 02:48:20;;;;;;;9.94;4.04;;;;;;;;;;358343;147;857581;-58
2022/06/09 02:49:21;;;;;;;7.90;4.45;;;;;;;;;;358960;147;865674;-56
2022/06/09 02:50:23;;;;;;;11.25;4.51;;;;;;;;;;358393;147;857400;-63
2022/06/09 02:51:27;;;;;;;9.54;3.98;;;;;;;;;;359388;147;857830;-59
2022/06/09 02:52:28;;;;;;;6.14;3.83;;;;;;;;;;358200;147;858952;-57
2022/06/09 02:53:30;;;;;;;7.19;4.10;;;;;;;;;;358607;147;858946;-56
2022/06/09 02:54:31;;;;;;;8.10;3.99;;;;;;;;;;359142;148;857135;-57
2022/06/09 02:55:33;;;;;;;18.31;4.75;;;;;;;;;;357061;147;859008;-57
2022/06/09 02:56:35;;;;;;;7.84;4.52;;;;;;;;;;358803;147;858694;-57
2022/06/09 02:57:36;;;;;;;5.66;4.14;;;;;;;;;;357927;147;858269;-57
2022/06/09 02:58:38;;;;;;;7.44;4.31;;;;;;;;;;358211;148;857249;-58
2022/06/09 02:59:39;;;;;;;7.39;4.37;;;;;;;;;;357665;147;864896;-57
2022/06/09 03:00:41;;;;;;;6.76;4.19;;;;;;;;;;359988;147;859495;-57
2022/06/09 03:01:43;;;;;;;6.96;4.18;;;;;;;;;;358210;147;864616;-58
2022/06/09 03:02:51;;;;;;;8.93;4.28;;;;;;;;;;358218;148;864791;-58
2022/06/09 03:03:53;;;;;;;7.55;4.44;;;;;;;;;;359291;148;857186;-58
2022/06/09 03:04:55;;;;;;;8.35;4.09;;;;;;;;;;359757;147;857540;-59
2022/06/09 03:05:56;;;;;;;6.46;4.62;;;;;;;;;;358094;147;856494;-58
2022/06/09 03:06:58;;;;;;;6.46;3.99;;;;;;;;;;359710;147;856546;-59
2022/06/09 03:07:59;;;;;;;10.50;4.01;;;;;;;;;;359335;148;857303;-58
2022/06/09 03:09:01;;;;;;;9.11;4.54;;;;;;;;;;358163;147;857238;-59
2022/06/09 03:10:03;;;;;;;5.93;3.92;;;;;;;;;;357017;147;858054;-58
2022/06/09 03:11:06;;;;;;;5.16;3.87;;;;;;;;;;359232;147;865952;-57
2022/06/09 03:12:09;;;;;;;6.54;4.15;;;;;;;;;;357750;147;858168;-59
2022/06/09 03:13:11;;;;;;;5.55;3.66;;;;;;;;;;357121;147;864853;-58
2022/06/09 03:14:12;;;;;;;7.96;4.11;;;;;;;;;;357078;147;859835;-57
2022/06/09 03:15:15;;;;;;;5.91;4.24;;;;;;;;;;357966;148;857758;-58
2022/06/09 03:16:17;;;;;;;5.60;4.03;;;;;;;;;;359413;147;865311;-58
2022/06/09 03:17:18;;;;;;;6.48;3.98;;;;;;;;;;357370;148;867036;-59
2022/06/09 03:18:20;;;;;;;9.12;4.37;;;;;;;;;;358619;148;857357;-58
2022/06/09 03:19:21;;;;;;;6.16;3.97;;;;;;;;;;359274;147;857383;-57
2022/06/09 03:20:24;;;;;;;6.58;4.61;;;;;;;;;;357984;147;859760;-59
2022/06/09 03:21:26;;;;;;;7.71;4.46;;;;;;;;;;358716;147;858212;-58
2022/06/09 03:22:27;;;;;;;7.90;5.00;;;;;;;;;;358571;148;865440;-60
2022/06/09 03:23:29;;;;;;;10.85;4.61;;;;;;;;;;359101;147;859094;-60
2022/06/09 03:24:31;;;;;;;8.47;4.69;;;;;;;;;;359515;147;857160;-61
2022/06/09 03:25:32;;;;;;;12.14;4.71;;;;;;;;;;358358;147;864722;-58
2022/06/09 03:26:34;;;;;;;7.21;4.31;;;;;;;;;;360174;147;865623;-58
2022/06/09 03:27:36;;;;;;;8.44;4.46;;;;;;;;;;358279;147;857134;-60
2022/06/09 03:28:37;;;;;;;7.05;4.09;;;;;;;;;;359394;147;858928;-59
2022/06/09 03:29:39;;;;;;;5.64;3.84;;;;;;;;;;357725;147;858972;-58
2022/06/09 03:30:40;;;;;;;6.14;3.93;;;;;;;;;;358382;147;857273;-58
2022/06/09 03:31:42;;;;;;;5.93;4.19;;;;;;;;;;359233;147;858834;-59
2022/06/09 03:32:44;;;;;;;7.12;4.30;;;;;;;;;;358343;147;859804;-59
2022/06/09 03:33:46;;;;;;;5.34;4.34;;;;;;;;;;358501;147;857747;-58
2022/06/09 03:34:47;;;;;;;7.13;3.73;;;;;;;;;;358417;147;865562;-58
2022/06/09 03:35:50;;;;;;;6.47;4.42;;;;;;;;;;358532;147;857381;-60
2022/06/09 03:36:52;;;;;;;7.79;4.18;;;;;;;;;;358391;147;857363;-58
2022/06/09 03:37:53;;;;;;;7.76;4.44;;;;;;;;;;358638;148;859117;-59
2022/06/09 03:38:55;;;;;;;6.66;4.24;;;;;;;;;;359206;147;856493;-58
2022/06/09 03:39:56;;;;;;;8.55;4.36;;;;;;;;;;358894;147;856406;-59
2022/06/09 03:40:58;;;;;;;7.56;4.63;;;;;;;;;;359170;147;856590;-60
2022/06/09 03:42:00;;;;;;;10.46;4.56;;;;;;;;;;359717;147;865071;-59
2022/06/09 03:43:04;;;;;;;8.99;4.22;;;;;;;;;;359189;147;858411;-57
2022/06/09 03:44:06;;;;;;;9.23;4.63;;;;;;;;;;355879;148;857322;-60
2022/06/09 03:45:08;;;;;;;6.25;4.14;;;;;;;;;;358666;147;865670;-59
2022/06/09 03:46:10;;;;;;;7.32;4.33;;;;;;;;;;356964;147;859186;-59
2022/06/09 03:47:12;;;;;;;6.85;4.21;;;;;;;;;;356561;147;860124;-59
2022/06/09 03:48:13;;;;;;;5.10;3.84;;;;;;;;;;357690;147;857698;-59
2022/06/09 03:49:15;;;;;;;5.77;3.69;;;;;;;;;;359160;147;857788;-59
2022/06/09 03:50:19;;;;;;;6.79;3.87;;;;;;;;;;360011;147;859190;-58
2022/06/09 03:51:20;;;;;;;7.31;3.81;;;;;;;;;;356162;147;856366;-59
2022/06/09 03:52:22;;;;;;;6.89;4.07;;;;;;;;;;357822;147;856287;-59
2022/06/09 03:53:24;;;;;;;5.71;3.92;;;;;;;;;;357851;147;857788;-59
2022/06/09 03:54:31;;;;;;;11.91;3.97;;;;;;;;;;359105;148;858667;-65
2022/06/09 03:55:32;;;;;;;5.58;3.71;;;;;;;;;;357016;147;857346;-58
2022/06/09 03:56:35;;;;;;;6.04;3.98;;;;;;;;;;357066;147;857283;-61
2022/06/09 03:57:37;;;;;;;11.46;3.94;;;;;;;;;;358523;147;859191;-59
2022/06/09 03:58:39;;;;;;;8.33;3.73;;;;;;;;;;357998;147;858218;-59
2022/06/09 03:59:40;;;;;;;6.61;3.89;;;;;;;;;;358405;147;859955;-58
2022/06/09 04:00:42;;;;;;;7.64;3.78;;;;;;;;;;358290;147;857319;-56
2022/06/09 04:01:43;;;;;;;8.16;3.83;;;;;;;;;;358632;147;856285;-57
2022/06/09 04:02:45;;;;;;;8.71;4.19;;;;;;;;;;358098;148;864030;-57
2022/06/09 04:03:47;;;;;;;8.92;4.28;;;;;;;;;;360245;147;857058;-61
2022/06/09 04:04:49;;;;;;;7.41;4.45;;;;;;;;;;356117;148;856554;-59
2022/06/09 04:05:51;;;;;;;8.36;4.45;;;;;;;;;;359184;147;863975;-59
2022/06/09 04:06:53;;;;;;;6.66;4.46;;;;;;;;;;359524;147;857376;-61
2022/06/09 04:07:55;;;;;;;7.95;4.11;;;;;;;;;;358112;147;856377;-59
2022/06/09 04:08:57;;;;;;;5.91;4.11;;;;;;;;;;359914;148;863890;-58
2022/06/09 04:09:58;;;;;;;8.45;4.18;;;;;;;;;;358829;147;863851;-59
2022/06/09 04:11:00;;;;;;;6.84;3.97;;;;;;;;;;358711;147;856536;-60
2022/06/09 04:12:01;;;;;;;9.22;4.12;;;;;;;;;;358804;147;856252;-60
2022/06/09 04:13:03;;;;;;;7.41;4.68;;;;;;;;;;359150;147;856794;-61
2022/06/09 04:14:05;;;;;;;9.35;4.70;;;;;;;;;;358185;147;863714;-60
2022/06/09 04:15:06;;;;;;;6.28;4.15;;;;;;;;;;358210;148;863746;-61
2022/06/09 04:16:13;;;;;;;7.10;4.27;;;;;;;;;;358952;148;857293;-59
2022/06/09 04:17:14;;;;;;;6.37;4.11;;;;;;;;;;358969;147;857010;-60
2022/06/09 04:18:16;;;;;;;9.15;4.47;;;;;;;;;;358454;147;856371;-59
2022/06/09 04:19:18;;;;;;;5.57;3.79;;;;;;;;;;358719;147;863689;-59
2022/06/09 04:20:22;;;;;;;6.84;4.13;;;;;;;;;;360311;148;856892;-60
2022/06/09 04:21:24;;;;;;;5.58;3.88;;;;;;;;;;358183;148;858505;-60
2022/06/09 04:22:26;;;;;;;5.77;3.84;;;;;;;;;;359162;148;856180;-59
2022/06/09 04:23:28;;;;;;;9.06;3.61;;;;;;;;;;357585;147;857408;-59
2022/06/09 04:24:29;;;;;;;10.38;4.01;;;;;;;;;;358867;147;857321;-59
2022/06/09 04:25:31;;;;;;;5.84;3.81;;;;;;;;;;361585;147;858960;-59
2022/06/09 04:26:33;;;;;;;5.36;3.38;;;;;;;;;;358301;147;858719;-60
2022/06/09 04:27:35;;;;;;;6.17;3.97;;;;;;;;;;356904;147;857362;-61
2022/06/09 04:28:37;;;;;;;5.10;3.50;;;;;;;;;;358951;147;857336;-59
2022/06/09 04:29:38;;;;;;;10.11;4.01;;;;;;;;;;359198;148;858725;-59
2022/06/09 04:30:40;;;;;;;7.92;3.76;;;;;;;;;;358392;148;857321;-61
2022/06/09 04:31:42;;;;;;;5.30;3.23;;;;;;;;;;359552;148;857188;-62
2022/06/09 04:32:44;;;;;;;7.44;3.70;;;;;;;;;;357057;147;864699;-60
2022/06/09 04:33:46;;;;;;;5.44;3.57;;;;;;;;;;357704;147;865186;-60
2022/06/09 04:34:47;;;;;;;4.04;3.22;;;;;;;;;;357892;147;857468;-61
2022/06/09 04:35:49;;;;;;;7.43;2.99;;;;;;;;;;358277;147;857377;-60
2022/06/09 04:36:50;;;;;;;6.81;3.06;;;;;;;;;;359804;147;857882;-61
2022/06/09 04:38:01;;;;;;;6.14;3.44;;;;;;;;;;359899;147;866570;-60
2022/06/09 04:39:02;;;;;;;;;;;;;;;;;;359959;147;856639;-59
2022/06/09 04:40:04;;;;;;;6.63;2.69;;;;;;;;;;359656;147;857439;-63
2022/06/09 04:41:09;;;;;;;5.29;2.72;;;;;;;;;;357740;147;858901;-60
2022/06/09 04:42:10;;;;;;;8.15;3.02;;;;;;;;;;359121;148;857241;-60
2022/06/09 04:43:12;;;;;;;5.01;3.06;;;;;;;;;;359077;147;857393;-59
2022/06/09 04:44:14;;;;;;;13.56;2.88;;;;;;;;;;358493;147;864791;-59
2022/06/09 04:45:16;;;;;;;4.64;2.99;;;;;;;;;;357947;147;858010;-58
2022/06/09 04:46:19;;;;;;;5.36;2.48;;;;;;;;;;357956;147;858094;-61
2022/06/09 04:47:21;;;;;;;6.28;2.94;;;;;;;;;;358732;147;857368;-58
2022/06/09 04:48:22;;;;;;;6.94;2.79;;;;;;;;;;359253;147;857199;-59
2022/06/09 04:49:24;;;;;;;7.53;2.81;;;;;;;;;;358263;148;858657;-60
2022/06/09 04:50:26;;;;;;;4.48;2.40;;;;;;;;;;358752;148;857309;-62
2022/06/09 04:51:27;;;;;;;4.56;2.46;;;;;;;;;;358847;147;857378;-60
2022/06/09 04:52:29;;;;;;;6.52;2.74;;;;;;;;;;358606;148;864895;-59
2022/06/09 04:53:31;;;;;;;5.50;2.67;;;;;;;;;;357664;147;857366;-59
2022/06/09 04:54:32;;;;;;;7.41;2.59;;;;;;;;;;357439;147;857366;-59
2022/06/09 04:55:34;;;;;;;5.97;2.36;;;;;;;;;;357388;147;858534;-60
2022/06/09 04:56:36;;;;;;;3.92;2.40;;;;;;;;;;358942;147;857554;-59
2022/06/09 04:57:39;;;;;;;5.29;2.15;;;;;;;;;;359608;147;857408;-58
2022/06/09 04:58:41;;;;;;;5.31;2.26;;;;;;;;;;351187;149;857801;-59
2022/06/09 04:59:43;;;;;;;5.52;2.45;;;;;;;;;;350646;149;857238;-58
2022/06/09 05:00:44;;;;;;;4.71;2.22;;;;;;;;;;357096;147;857271;-59
2022/06/09 05:01:46;;;;;;;3.91;2.24;;;;;;;;;;360547;147;865015;-59
2022/06/09 05:02:50;;;;;;;5.21;2.64;;;;;;;;;;361174;147;859162;-60
2022/06/09 05:03:51;;;;;;;2.64;1.97;;;;;;;;;;358462;147;858303;-60
2022/06/09 05:04:53;;;;;;;5.09;1.91;;;;;;;;;;359960;148;857742;-61
2022/06/09 05:05:54;;;;;;;5.65;2.04;;;;;;;;;;358197;148;859211;-57
2022/06/09 05:06:56;;;;;;;6.91;2.01;;;;;;;;;;359210;147;856603;-59
2022/06/09 05:07:59;;;;;;;4.39;1.74;;;;;;;23.42;100.00;151249.95;356073;148;864437;-60
2022/06/09 05:09:00;;;;;;;4.31;1.79;;;;;;;;;;358664;147;863866;-59
2022/06/09 05:10:02;;;;;;;3.84;1.83;;;;;;;;;;358995;150;856236;-59
2022/06/09 05:11:04;;;;;;;2.04;1.83;;;;;;;;;;361834;147;857285;-58
2022/06/09 05:12:05;;;;;;;6.00;1.91;;;;;;;;;;365062;147;864826;-59
2022/06/09 05:13:07;;;;;;;3.81;1.81;;;;;;;;;;358140;147;857892;-58
2022/06/09 05:14:09;;;;;;;3.79;1.83;;;;;;;;;;359308;147;859091;-59
2022/06/09 05:15:14;;;;;;;2.12;1.71;;;;;;;;;;357761;148;865759;-58
2022/06/09 05:16:16;;;;;;;2.64;1.81;;;;;;;;;;358072;148;857252;-59
2022/06/09 05:17:18;;;;;;;5.60;2.09;;;;;;;;;;360201;147;857345;-59
2022/06/09 05:18:21;;;;;;;4.09;1.68;;;;;;;;;;357342;147;859227;-58
2022/06/09 05:19:23;;;;;;;3.69;1.79;;;;;;;;;;357508;147;857600;-59
2022/06/09 05:20:24;;;;;;;4.09;1.92;;;;;;;;;;359023;147;857739;-59
2022/06/09 05:21:26;;;;;;;3.49;1.38;;;;;;;;;;358516;147;864764;-59
2022/06/09 05:22:28;;;;;;;3.05;1.51;;;;;;;;;;358976;146;865267;-58
2022/06/09 05:23:29;;;;;;;3.24;1.67;;;;;;;;;;358411;147;864496;-59
2022/06/09 05:24:31;;;;;;;3.41;1.66;;;;;;;;;;357283;147;859259;-59
2022/06/09 05:25:32;;;;;;;4.22;1.93;;;;;;;;;;359061;148;857250;-59
2022/06/09 05:26:34;;;;;;;4.44;1.48;;;;;;;;;;352267;150;857248;-58
2022/06/09 05:27:36;;;;;;;5.61;2.01;;;;;;;;;;359480;147;864595;-59
2022/06/09 05:28:37;;;;;;;3.20;1.61;;;;;;;;;;359408;147;859001;-59
2022/06/09 05:29:39;;;;;;;3.41;1.84;;;;;;;;;;357209;149;858637;-60
2022/06/09 05:30:40;;;;;;;6.14;1.69;;;;;;;;;;358710;150;866927;-59
2022/06/09 05:31:43;;;;;;;3.94;1.58;;;;;;;;;;356944;148;865339;-59
2022/06/09 05:32:45;;;;;;;4.96;1.78;;;;;;;;;;359234;147;860348;-61
2022/06/09 05:33:47;;;;;;;2.36;1.28;;;;;;;;;;358997;149;865471;-59
2022/06/09 05:34:48;;;;;;;1.86;1.01;;;;;;;;;;359693;147;864831;-59
2022/06/09 05:35:50;;;;;;;2.41;1.03;;;;;;;;;;358577;147;857427;-59
2022/06/09 05:36:52;;;;;;;3.52;1.46;;;;;;;;;;359702;147;864785;-59
2022/06/09 05:44:58;;;;;;;2.06;1.20;;;;;;;;;;358177;148;857279;-57
2022/06/09 05:45:57;;;;;;;3.94;1.48;;;;;;;;;;358451;148;859107;-60
2022/06/09 05:46:59;;;;;;;4.04;1.41;;;;;;;;;;359120;147;857429;-60
2022/06/09 05:48:01;;;;;;;1.87;1.05;;;;;;;;;;355299;148;859207;-63
2022/06/09 05:49:03;;;;;;;4.59;1.07;;;;;;;;;;357430;148;859667;-59
2022/06/09 05:50:06;;;;;;;3.11;1.03;;;;;;;;;;358004;148;857252;-59
2022/06/09 05:51:09;;;;;;;2.78;1.10;;;;;;;;;;358233;147;864863;-59
2022/06/09 05:52:11;;;;;;;3.47;1.06;;;;;;;;;;360454;147;858641;-59
2022/06/09 05:53:13;;;;;;;3.29;1.21;;;;;;;;;;358817;147;857239;-59
2022/06/09 05:54:15;;;;;;;2.90;1.20;;;;;;;;;;358846;147;865818;-59
2022/06/09 05:55:16;;;;;;;1.57;0.76;;;;;;;;;;355705;148;864788;-61
2022/06/09 05:56:19;;;;;;;2.88;1.04;;;;;;;;;;356710;147;857950;-57
2022/06/09 05:57:20;;;;;;;2.77;0.83;;;;;;;;;;356202;148;864465;-58
2022/06/09 05:58:22;;;;;;;3.04;1.11;;;;;;;;;;357655;147;858866;-60
2022/06/09 05:59:24;;;;;;;9.44;1.84;;;;;;;;;;356558;148;865459;-60
2022/06/09 06:00:25;;;;;;;5.55;1.08;;;;;;;;;;357600;147;857298;-60
2022/06/09 06:01:27;;;;;;;3.71;0.89;;;;;;;;;;359651;147;864592;-59
2022/06/09 06:02:30;;;;;;;4.67;1.06;;;;;;;;;;358779;147;859580;-60
2022/06/09 06:03:32;;;;;;;2.84;1.04;;;;;;;;;;357826;148;857292;-62
2022/06/09 06:04:33;;;;;;;7.01;1.42;;;;;;;;;;359847;147;858481;-59
2022/06/09 06:06:56;;;;;;;2.48;1.42;;;;;;;;;;358617;147;857383;-58
2022/06/09 06:07:57;;;;;;;4.46;1.29;;;;;;;;;;356931;149;856575;-61
2022/06/09 06:09:00;;;;;;;3.74;1.24;;;;;;;25.86;96.11;151232.16;356479;147;859719;-61
2022/06/09 06:10:03;;;;;;;3.61;1.14;;;;;;;;;;359465;147;857524;-58
2022/06/09 06:11:04;;;;;;;5.70;1.18;;;;;;;;;;358109;149;857227;-60
2022/06/09 06:12:06;;;;;;;1.33;1.06;;;;;;;;;;359127;149;858257;-62
2022/06/09 06:13:08;;;;;;;2.05;1.09;;;;;;;;;;357292;148;857433;-57
2022/06/09 06:14:10;;;;;;;2.16;1.09;;;;;;;;;;357838;149;857392;-60
2022/06/09 06:15:11;;;;;;;4.84;1.21;;;;;;;;;;357607;147;857274;-58
2022/06/09 06:16:15;;;;;;;3.39;1.43;;;;;;;;;;351268;150;857983;-62
2022/06/09 06:17:17;;;;;;;4.88;1.29;;;;;;;;;;352147;150;857343;-61
2022/06/09 06:18:18;;;;;;;6.79;2.06;;;;;;;;;;358477;148;864737;-60
2022/06/09 06:19:22;;;;;;;2.76;1.26;;;;;;;;;;358068;147;864845;-60
2022/06/09 06:20:23;;;;;;;3.22;1.19;;;;;;;;;;357248;148;859662;-60
2022/06/09 06:21:25;;;;;;;3.41;1.21;;;;;;;;;;359179;147;858165;-63
2022/06/09 06:22:27;;;;;;;5.16;0.89;;;;;;;;;;357746;147;864519;-60
2022/06/09 06:23:28;;;;;;;4.99;1.46;;;;;;;;;;357581;147;866433;-61
2022/06/09 06:24:30;;;;;;;4.60;1.20;;;;;;;;;;358984;148;859720;-62
2022/06/09 06:25:31;;;;;;;3.09;1.06;;;;;;;;;;358868;147;857378;-64
2022/06/09 06:26:33;;;;;;;2.34;1.37;;;;;;;;;;358708;147;857680;-57
2022/06/09 06:27:35;;;;;;;2.73;1.20;;;;;;;;;;358706;147;864937;-66
2022/06/09 06:28:37;;;;;;;3.24;1.29;;;;;;;;;;357976;148;858583;-62